createdAt,value
2019-05-01T00:00:27.588Z,12.02
2019-05-01T00:03:00.586Z,12.02
2019-05-01T00:05:40.947Z,11.99
2019-05-01T00:08:11.037Z,11.95
2019-05-01T00:10:40.861Z,11.99
2019-05-01T00:13:10.714Z,11.95
2019-05-01T00:15:40.605Z,11.92
2019-05-01T00:18:10.375Z,11.91
2019-05-01T00:20:40.259Z,11.91
2019-05-01T00:23:10.080Z,11.97
2019-05-01T00:25:39.929Z,11.97
2019-05-01T00:28:10.009Z,11.96
2019-05-01T00:30:40.097Z,12.04
2019-05-01T00:33:10.043Z,12.03
2019-05-01T00:35:40.028Z,12.03
2019-05-01T00:38:09.844Z,12.02
2019-05-01T00:40:39.707Z,12.01
2019-05-01T00:43:09.563Z,12.04
2019-05-01T00:45:39.452Z,12.02
2019-05-01T00:48:09.449Z,12.04
2019-05-01T00:50:39.371Z,12.03
2019-05-01T00:53:09.178Z,11.95
2019-05-01T00:55:40.638Z,11.95
2019-05-01T00:58:20.725Z,11.96
2019-05-01T01:01:08.237Z,11.95
2019-05-01T01:03:39.003Z,11.95
2019-05-01T01:06:08.363Z,11.88
2019-05-01T01:08:38.158Z,11.84
2019-05-01T01:11:07.984Z,11.90
2019-05-01T01:13:37.818Z,12.02
2019-05-01T01:16:07.705Z,12.06
2019-05-01T01:18:37.592Z,12.05
2019-05-01T01:21:07.421Z,12.05
2019-05-01T01:23:37.487Z,12.05
2019-05-01T01:26:07.518Z,12.09
2019-05-01T01:28:37.378Z,12.06
2019-05-01T01:31:07.323Z,12.06
2019-05-01T01:33:37.075Z,12.09
2019-05-01T01:36:06.849Z,12.13
2019-05-01T01:38:36.607Z,12.19
2019-05-01T01:41:07.511Z,12.17
2019-05-01T01:43:42.024Z,12.22
2019-05-01T01:46:19.456Z,12.19
2019-05-01T01:48:49.258Z,12.11
2019-05-01T01:51:19.621Z,12.11
2019-05-01T01:53:50.355Z,12.16
2019-05-01T01:56:20.572Z,12.15
2019-05-01T01:58:51.001Z,12.17
2019-05-01T02:01:22.513Z,12.26
2019-05-01T02:04:00.671Z,12.25
2019-05-01T02:06:30.665Z,12.23
2019-05-01T02:09:00.590Z,12.22
2019-05-01T02:11:32.085Z,12.25
2019-05-01T02:14:01.835Z,12.23
2019-05-01T02:16:31.744Z,12.32
2019-05-01T02:19:01.544Z,12.29
2019-05-01T02:21:31.375Z,12.26
2019-05-01T02:24:01.233Z,12.24
2019-05-01T02:26:32.738Z,12.22
2019-05-01T02:29:09.976Z,12.25
2019-05-01T02:31:41.983Z,12.37
2019-05-01T02:34:12.153Z,12.40
2019-05-01T02:36:43.763Z,12.44
2019-05-01T02:39:16.893Z,12.44
2019-05-01T02:41:47.969Z,12.42
2019-05-01T02:44:26.051Z,12.47
2019-05-01T02:46:58.740Z,12.51
2019-05-01T02:49:43.572Z,12.52
2019-05-01T02:52:14.360Z,12.60
2019-05-01T02:54:46.683Z,12.55
2019-05-01T02:57:19.176Z,12.60
2019-05-01T02:59:51.979Z,12.61
2019-05-01T03:02:25.154Z,12.66
2019-05-01T03:04:56.959Z,12.67
2019-05-01T03:07:29.598Z,12.70
2019-05-01T03:10:00.282Z,12.75
2019-05-01T03:12:31.106Z,12.80
2019-05-01T03:15:01.507Z,12.79
2019-05-01T03:17:36.574Z,12.80
2019-05-01T03:20:24.096Z,12.74
2019-05-01T03:23:11.883Z,12.78
2019-05-01T03:25:42.169Z,12.82
2019-05-01T03:28:12.703Z,12.82
2019-05-01T03:30:42.595Z,12.75
2019-05-01T03:33:12.951Z,12.83
2019-05-01T03:35:43.223Z,12.93
2019-05-01T03:38:14.144Z,12.89
2019-05-01T03:40:43.959Z,12.83
2019-05-01T03:43:13.794Z,12.85
2019-05-01T03:45:44.254Z,12.94
2019-05-01T03:48:14.076Z,12.88
2019-05-01T03:50:46.920Z,12.97
2019-05-01T03:53:15.519Z,13.00
2019-05-01T03:55:45.991Z,12.94
2019-05-01T03:58:16.028Z,12.91
2019-05-01T04:00:59.352Z,12.95
2019-05-01T04:03:31.196Z,12.98
2019-05-01T04:06:00.948Z,12.95
2019-05-01T04:08:31.069Z,12.99
2019-05-01T04:11:01.157Z,13.13
2019-05-01T04:13:31.826Z,13.21
2019-05-01T04:16:00.882Z,13.25
2019-05-01T04:18:30.804Z,13.25
2019-05-01T04:21:02.051Z,13.27
2019-05-01T04:23:31.956Z,13.33
2019-05-01T04:26:02.292Z,13.30
2019-05-01T04:28:36.826Z,13.31
2019-05-01T04:31:11.039Z,13.32
2019-05-01T04:33:42.579Z,13.39
2019-05-01T04:36:14.679Z,13.25
2019-05-01T04:38:44.770Z,13.25
2019-05-01T04:41:14.762Z,13.18
2019-05-01T04:43:44.606Z,13.26
2019-05-01T04:46:14.484Z,13.26
2019-05-01T04:48:44.485Z,13.30
2019-05-01T04:51:14.564Z,13.28
2019-05-01T04:53:44.517Z,13.33
2019-05-01T04:56:14.341Z,13.37
2019-05-01T04:58:44.285Z,13.43
2019-05-01T05:01:14.494Z,13.39
2019-05-01T05:03:46.189Z,13.49
2019-05-01T05:06:16.437Z,13.56
2019-05-01T05:08:46.585Z,13.67
2019-05-01T05:11:21.244Z,14.04
2019-05-01T05:14:10.552Z,14.47
2019-05-01T05:16:48.497Z,14.70
2019-05-01T05:19:18.576Z,14.91
2019-05-01T05:21:48.826Z,14.90
2019-05-01T05:24:19.363Z,14.92
2019-05-01T05:26:50.224Z,15.07
2019-05-01T05:29:20.450Z,15.08
2019-05-01T05:31:51.887Z,15.02
2019-05-01T05:34:25.634Z,15.11
2019-05-01T05:36:59.446Z,15.12
2019-05-01T05:39:36.380Z,15.00
2019-05-01T05:42:06.980Z,14.90
2019-05-01T05:44:35.966Z,14.81
2019-05-01T05:47:06.083Z,14.95
2019-05-01T05:49:36.018Z,14.94
2019-05-01T05:52:20.560Z,14.85
2019-05-01T05:54:56.239Z,14.98
2019-05-01T05:57:33.424Z,15.09
2019-05-01T06:00:05.013Z,15.36
2019-05-01T06:02:38.309Z,15.53
2019-05-01T06:05:18.727Z,15.75
2019-05-01T06:08:07.613Z,15.80
2019-05-01T06:10:43.741Z,15.98
2019-05-01T06:13:30.196Z,15.95
2019-05-01T06:16:01.726Z,16.04
2019-05-01T06:18:34.827Z,15.79
2019-05-01T06:21:12.995Z,15.86
2019-05-01T06:23:45.842Z,16.39
2019-05-01T06:26:32.089Z,16.65
2019-05-01T06:29:02.542Z,16.40
2019-05-01T06:31:33.036Z,16.33
2019-05-01T06:34:02.463Z,16.66
2019-05-01T06:36:33.423Z,16.24
2019-05-01T06:39:06.841Z,15.75
2019-05-01T06:41:42.769Z,15.85
2019-05-01T06:44:17.981Z,16.09
2019-05-01T06:46:52.781Z,16.08
2019-05-01T06:49:29.296Z,16.12
2019-05-01T06:51:57.907Z,15.81
2019-05-01T06:54:29.643Z,15.95
2019-05-01T06:57:01.450Z,16.40
2019-05-01T06:59:33.358Z,16.56
2019-05-01T07:02:04.218Z,15.93
2019-05-01T07:04:37.916Z,16.42
2019-05-01T07:07:07.123Z,16.73
2019-05-01T07:09:39.336Z,16.81
2019-05-01T07:12:10.786Z,17.03
2019-05-01T07:14:40.863Z,16.71
2019-05-01T07:17:13.559Z,16.53
2019-05-01T07:20:02.454Z,16.91
2019-05-01T07:22:32.391Z,17.27
2019-05-01T07:25:04.145Z,17.69
2019-05-01T07:27:34.449Z,17.53
2019-05-01T07:30:10.786Z,18.00
2019-05-01T07:32:42.794Z,18.57
2019-05-01T07:35:13.286Z,18.90
2019-05-01T07:37:43.377Z,19.10
2019-05-01T07:40:13.561Z,18.38
2019-05-01T07:42:51.380Z,18.02
2019-05-01T07:45:26.673Z,18.40
2019-05-01T07:48:01.121Z,18.47
2019-05-01T07:50:32.663Z,17.99
2019-05-01T07:53:01.776Z,18.12
2019-05-01T07:55:37.771Z,18.64
2019-05-01T07:58:15.668Z,18.73
2019-05-01T08:01:06.331Z,19.12
2019-05-01T08:03:37.983Z,20.47
2019-05-01T08:06:07.870Z,22.73
2019-05-01T08:08:39.583Z,24.15
2019-05-01T08:11:10.488Z,25.28
2019-05-01T08:13:40.211Z,24.83
2019-05-01T08:16:10.110Z,24.50
2019-05-01T08:18:41.543Z,24.78
2019-05-01T08:21:12.876Z,25.20
2019-05-01T08:23:46.931Z,25.20
2019-05-01T08:26:14.262Z,25.30
2019-05-01T08:29:06.851Z,22.90
2019-05-01T08:31:40.075Z,22.58
2019-05-01T08:34:11.585Z,22.10
2019-05-01T08:36:50.206Z,21.50
2019-05-01T08:39:20.139Z,21.06
2019-05-01T08:41:50.059Z,22.68
2019-05-01T08:44:24.959Z,21.99
2019-05-01T08:47:03.638Z,21.23
2019-05-01T08:49:42.221Z,20.94
2019-05-01T08:52:12.920Z,20.49
2019-05-01T08:54:40.845Z,20.48
2019-05-01T08:57:10.550Z,21.01
2019-05-01T08:59:40.436Z,21.26
2019-05-01T09:02:10.358Z,20.67
2019-05-01T09:04:40.172Z,20.84
2019-05-01T09:07:10.148Z,21.12
2019-05-01T09:09:45.309Z,21.37
2019-05-01T09:12:13.430Z,21.65
2019-05-01T09:14:43.383Z,21.22
2019-05-01T09:17:13.241Z,21.11
2019-05-01T09:19:43.088Z,20.67
2019-05-01T09:22:12.922Z,21.75
2019-05-01T09:24:42.780Z,22.40
2019-05-01T09:27:18.748Z,22.45
2019-05-01T09:29:51.668Z,22.96
2019-05-01T09:32:22.192Z,22.65
2019-05-01T09:34:52.103Z,21.86
2019-05-01T09:37:22.055Z,21.98
2019-05-01T09:39:51.993Z,22.15
2019-05-01T09:42:23.669Z,22.05
2019-05-01T09:44:53.512Z,22.32
2019-05-01T09:47:24.462Z,22.62
2019-05-01T09:49:55.910Z,22.73
2019-05-01T09:52:36.493Z,23.20
2019-05-01T09:55:23.000Z,22.76
2019-05-01T09:57:53.222Z,22.96
2019-05-01T10:00:25.026Z,23.36
2019-05-01T10:02:54.887Z,23.12
2019-05-01T10:05:29.104Z,22.92
2019-05-01T10:08:00.127Z,23.50
2019-05-01T10:10:29.324Z,24.43
2019-05-01T10:12:59.689Z,25.78
2019-05-01T10:15:29.599Z,25.52
2019-05-01T10:17:59.495Z,25.97
2019-05-01T10:20:29.339Z,26.38
2019-05-01T10:22:59.168Z,24.95
2019-05-01T10:25:29.043Z,23.90
2019-05-01T10:28:07.115Z,24.65
2019-05-01T10:30:39.302Z,24.12
2019-05-01T10:33:10.816Z,24.24
2019-05-01T10:35:43.453Z,25.27
2019-05-01T10:38:13.385Z,26.41
2019-05-01T10:40:43.157Z,25.80
2019-05-01T10:43:13.108Z,25.17
2019-05-01T10:45:42.939Z,24.24
2019-05-01T10:48:12.710Z,25.49
2019-05-01T10:50:42.826Z,26.62
2019-05-01T10:53:12.936Z,26.54
2019-05-01T10:55:42.860Z,25.37
2019-05-01T10:58:17.626Z,26.01
2019-05-01T11:00:45.909Z,25.23
2019-05-01T11:03:15.804Z,25.51
2019-05-01T11:05:55.760Z,26.17
2019-05-01T11:08:18.405Z,25.46
2019-05-01T11:10:48.220Z,25.27
2019-05-01T11:13:18.056Z,26.32
2019-05-01T11:15:48.853Z,24.65
2019-05-01T11:18:19.778Z,24.20
2019-05-01T11:20:49.629Z,24.12
2019-05-01T11:23:19.384Z,23.80
2019-05-01T11:25:49.272Z,24.29
2019-05-01T11:28:19.226Z,24.60
2019-05-01T11:30:49.123Z,24.29
2019-05-01T11:33:20.671Z,24.08
2019-05-01T11:35:54.874Z,24.08
2019-05-01T11:38:41.357Z,23.97
2019-05-01T11:41:12.816Z,24.99
2019-05-01T11:43:42.906Z,25.90
2019-05-01T11:46:12.801Z,26.12
2019-05-01T11:48:44.439Z,24.40
2019-05-01T11:51:14.231Z,25.13
2019-05-01T11:53:44.068Z,25.19
2019-05-01T11:56:14.795Z,26.26
2019-05-01T11:58:44.771Z,26.55
2019-05-01T12:01:16.197Z,27.74
2019-05-01T12:03:46.205Z,25.41
2019-05-01T12:06:22.608Z,24.90
2019-05-01T12:08:47.624Z,24.83
2019-05-01T12:11:19.177Z,24.62
2019-05-01T12:13:48.885Z,24.48
2019-05-01T12:16:23.297Z,24.99
2019-05-01T12:18:53.409Z,26.11
2019-05-01T12:21:23.209Z,25.01
2019-05-01T12:23:53.127Z,27.57
2019-05-01T12:26:22.898Z,24.59
2019-05-01T12:28:52.804Z,23.55
2019-05-01T12:31:24.208Z,22.61
2019-05-01T12:33:53.957Z,23.12
2019-05-01T12:36:35.668Z,22.73
2019-05-01T12:38:55.377Z,22.80
2019-05-01T12:41:26.916Z,22.69
2019-05-01T12:43:56.860Z,22.58
2019-05-01T12:46:44.355Z,22.91
2019-05-01T12:49:15.810Z,22.94
2019-05-01T12:51:47.411Z,22.80
2019-05-01T12:54:21.590Z,23.57
2019-05-01T12:56:56.030Z,24.52
2019-05-01T12:59:25.975Z,24.37
2019-05-01T13:01:55.934Z,23.87
2019-05-01T13:04:25.959Z,23.55
2019-05-01T13:06:58.247Z,24.80
2019-05-01T13:09:28.229Z,23.89
2019-05-01T13:11:58.146Z,24.18
2019-05-01T13:14:28.010Z,25.79
2019-05-01T13:16:57.852Z,27.02
2019-05-01T13:19:27.755Z,27.62
2019-05-01T13:21:57.950Z,27.96
2019-05-01T13:24:28.073Z,27.90
2019-05-01T13:26:59.586Z,29.42
2019-05-01T13:29:37.073Z,29.66
2019-05-01T13:32:11.205Z,29.87
2019-05-01T13:34:41.089Z,29.20
2019-05-01T13:37:10.982Z,29.16
2019-05-01T13:39:40.884Z,28.38
2019-05-01T13:42:10.761Z,28.32
2019-05-01T13:44:41.491Z,28.21
2019-05-01T13:47:11.367Z,27.54
2019-05-01T13:49:41.484Z,27.08
2019-05-01T13:52:11.523Z,25.55
2019-05-01T13:54:41.334Z,26.10
2019-05-01T13:57:11.432Z,24.71
2019-05-01T13:59:41.280Z,24.17
2019-05-01T14:02:11.137Z,23.82
2019-05-01T14:04:41.179Z,23.03
2019-05-01T14:07:16.702Z,22.79
2019-05-01T14:09:42.769Z,22.95
2019-05-01T14:12:12.676Z,23.13
2019-05-01T14:14:42.695Z,23.79
2019-05-01T14:17:12.609Z,23.63
2019-05-01T14:19:44.066Z,23.92
2019-05-01T14:22:21.390Z,22.97
2019-05-01T14:24:55.607Z,22.92
2019-05-01T14:27:26.565Z,23.30
2019-05-01T14:29:56.521Z,23.64
2019-05-01T14:32:26.444Z,23.38
2019-05-01T14:34:56.323Z,23.38
2019-05-01T14:37:29.870Z,23.03
2019-05-01T14:39:59.038Z,23.11
2019-05-01T14:42:28.920Z,23.16
2019-05-01T14:44:59.203Z,23.49
2019-05-01T14:47:29.094Z,23.72
2019-05-01T14:49:59.847Z,22.91
2019-05-01T14:52:29.669Z,23.12
2019-05-01T14:54:59.563Z,22.64
2019-05-01T14:57:29.515Z,21.95
2019-05-01T14:59:59.913Z,22.07
2019-05-01T15:02:30.199Z,22.85
2019-05-01T15:05:00.124Z,22.49
2019-05-01T15:07:42.823Z,22.19
2019-05-01T15:10:01.640Z,21.95
2019-05-01T15:12:32.530Z,21.77
2019-05-01T15:15:20.273Z,22.32
2019-05-01T15:17:51.737Z,22.43
2019-05-01T15:20:21.624Z,21.85
2019-05-01T15:22:51.445Z,21.42
2019-05-01T15:25:21.379Z,21.29
2019-05-01T15:27:51.229Z,21.12
2019-05-01T15:30:21.137Z,20.99
2019-05-01T15:32:51.025Z,20.96
2019-05-01T15:35:21.203Z,21.12
2019-05-01T15:37:57.058Z,21.81
2019-05-01T15:40:30.424Z,22.13
2019-05-01T15:43:17.016Z,22.16
2019-05-01T15:45:46.999Z,21.95
2019-05-01T15:48:16.792Z,21.36
2019-05-01T15:50:46.679Z,21.24
2019-05-01T15:53:16.595Z,21.09
2019-05-01T15:55:46.609Z,21.12
2019-05-01T15:58:16.478Z,20.94
2019-05-01T16:00:46.392Z,20.72
2019-05-01T16:03:16.257Z,20.80
2019-05-01T16:05:45.994Z,20.55
2019-05-01T16:08:15.923Z,20.27
2019-05-01T16:10:47.325Z,20.12
2019-05-01T16:13:17.205Z,19.91
2019-05-01T16:15:46.997Z,19.67
2019-05-01T16:18:16.819Z,19.49
2019-05-01T16:20:46.609Z,19.42
2019-05-01T16:23:16.396Z,19.37
2019-05-01T16:25:46.136Z,19.31
2019-05-01T16:28:16.061Z,19.18
2019-05-01T16:30:45.959Z,19.02
2019-05-01T16:33:15.851Z,18.94
2019-05-01T16:35:45.662Z,18.78
2019-05-01T16:38:23.136Z,18.67
2019-05-01T16:40:59.055Z,18.63
2019-05-01T16:43:28.869Z,18.57
2019-05-01T16:45:59.685Z,18.48
2019-05-01T16:48:29.674Z,18.45
2019-05-01T16:50:59.574Z,18.41
2019-05-01T16:53:29.466Z,18.41
2019-05-01T16:55:59.296Z,18.38
2019-05-01T16:58:29.254Z,18.25
2019-05-01T17:01:03.601Z,18.11
2019-05-01T17:03:37.757Z,18.06
2019-05-01T17:06:10.199Z,18.01
2019-05-01T17:08:44.566Z,17.90
2019-05-01T17:11:14.555Z,17.77
2019-05-01T17:13:44.376Z,17.67
2019-05-01T17:16:14.221Z,17.53
2019-05-01T17:18:44.100Z,17.43
2019-05-01T17:21:14.130Z,17.35
2019-05-01T17:23:44.151Z,17.28
2019-05-01T17:26:14.030Z,17.18
2019-05-01T17:28:44.038Z,17.11
2019-05-01T17:31:13.931Z,16.97
2019-05-01T17:33:44.187Z,16.84
2019-05-01T17:36:14.083Z,16.72
2019-05-01T17:38:49.800Z,16.66
2019-05-01T17:41:15.555Z,16.68
2019-05-01T17:43:49.361Z,16.60
2019-05-01T17:46:16.919Z,16.54
2019-05-01T17:48:46.755Z,16.46
2019-05-01T17:51:19.601Z,16.33
2019-05-01T17:53:50.500Z,16.33
2019-05-01T17:56:26.114Z,16.33
2019-05-01T17:58:51.932Z,16.20
2019-05-01T18:01:39.308Z,16.17
2019-05-01T18:04:16.782Z,16.06
2019-05-01T18:06:48.390Z,15.94
2019-05-01T18:09:18.568Z,15.88
2019-05-01T18:11:52.175Z,15.81
2019-05-01T18:14:20.299Z,15.74
2019-05-01T18:16:50.200Z,15.75
2019-05-01T18:19:20.078Z,15.69
2019-05-01T18:21:52.154Z,15.70
2019-05-01T18:24:40.109Z,15.67
2019-05-01T18:27:27.660Z,15.55
2019-05-01T18:29:59.021Z,15.56
2019-05-01T18:32:30.497Z,15.49
2019-05-01T18:35:00.487Z,15.54
2019-05-01T18:37:37.893Z,15.48
2019-05-01T18:40:09.583Z,15.39
2019-05-01T18:42:39.490Z,15.33
2019-05-01T18:45:12.489Z,15.32
2019-05-01T18:47:42.297Z,15.26
2019-05-01T18:50:13.595Z,15.13
2019-05-01T18:52:43.546Z,14.98
2019-05-01T18:55:13.527Z,14.95
2019-05-01T18:57:43.311Z,14.93
2019-05-01T19:00:14.293Z,14.82
2019-05-01T19:02:44.207Z,14.80
2019-05-01T19:05:14.121Z,14.81
2019-05-01T19:07:43.948Z,14.76
2019-05-01T19:10:13.866Z,14.76
2019-05-01T19:12:43.675Z,14.71
2019-05-01T19:15:13.508Z,14.72
2019-05-01T19:17:43.377Z,14.71
2019-05-01T19:20:13.213Z,14.73
2019-05-01T19:22:43.067Z,14.74
2019-05-01T19:25:16.346Z,14.84
2019-05-01T19:27:45.625Z,15.11
2019-05-01T19:30:16.809Z,15.17
2019-05-01T19:32:47.069Z,15.16
2019-05-01T19:35:16.899Z,15.10
2019-05-01T19:37:46.822Z,15.25
2019-05-01T19:40:16.857Z,15.18
2019-05-01T19:42:46.643Z,15.21
2019-05-01T19:45:19.467Z,15.26
2019-05-01T19:47:49.438Z,15.26
2019-05-01T19:50:19.247Z,15.37
2019-05-01T19:52:49.064Z,15.25
2019-05-01T19:55:19.114Z,15.20
2019-05-01T19:57:49.008Z,15.24
2019-05-01T20:00:23.378Z,15.19
2019-05-01T20:02:54.266Z,15.14
2019-05-01T20:05:27.495Z,15.00
2019-05-01T20:07:57.889Z,15.02
2019-05-01T20:10:27.959Z,14.87
2019-05-01T20:12:57.828Z,14.80
2019-05-01T20:15:27.832Z,14.79
2019-05-01T20:17:57.643Z,14.72
2019-05-01T20:20:27.396Z,14.70
2019-05-01T20:22:57.304Z,14.71
2019-05-01T20:25:27.184Z,14.59
2019-05-01T20:27:57.482Z,14.63
2019-05-01T20:30:27.382Z,14.71
2019-05-01T20:32:58.160Z,14.65
2019-05-01T20:35:30.207Z,14.62
2019-05-01T20:38:00.084Z,14.56
2019-05-01T20:40:29.964Z,14.54
2019-05-01T20:43:01.107Z,14.56
2019-05-01T20:45:31.371Z,14.47
2019-05-01T20:48:01.321Z,14.50
2019-05-01T20:50:31.151Z,14.50
2019-05-01T20:53:00.953Z,14.37
2019-05-01T20:55:30.786Z,14.43
2019-05-01T20:58:02.236Z,14.36
2019-05-01T21:00:32.046Z,14.33
2019-05-01T21:03:01.867Z,14.31
2019-05-01T21:05:36.011Z,14.30
2019-05-01T21:08:16.548Z,14.22
2019-05-01T21:10:51.129Z,14.19
2019-05-01T21:13:23.309Z,14.19
2019-05-01T21:15:56.350Z,14.15
2019-05-01T21:18:26.058Z,14.17
2019-05-01T21:20:56.590Z,14.05
2019-05-01T21:23:26.421Z,13.97
2019-05-01T21:25:56.311Z,13.84
2019-05-01T21:28:27.134Z,13.88
2019-05-01T21:30:56.884Z,13.84
2019-05-01T21:33:26.746Z,13.90
2019-05-01T21:35:59.455Z,13.86
2019-05-01T21:38:28.124Z,13.82
2019-05-01T21:40:57.878Z,13.89
2019-05-01T21:43:27.917Z,14.07
2019-05-01T21:45:59.070Z,13.97
2019-05-01T21:48:28.965Z,13.99
2019-05-01T21:51:03.360Z,13.92
2019-05-01T21:53:30.306Z,13.95
2019-05-01T21:56:02.124Z,13.83
2019-05-01T21:58:33.376Z,13.78
2019-05-01T22:01:03.417Z,13.74
2019-05-01T22:03:33.408Z,13.71
2019-05-01T22:06:03.395Z,13.66
2019-05-01T22:08:34.414Z,13.64
2019-05-01T22:11:05.171Z,13.77
2019-05-01T22:13:35.076Z,13.63
2019-05-01T22:16:09.472Z,13.64
2019-05-01T22:18:40.929Z,13.57
2019-05-01T22:21:12.463Z,13.63
2019-05-01T22:24:00.138Z,13.52
2019-05-01T22:26:31.574Z,13.53
2019-05-01T22:29:05.689Z,13.44
2019-05-01T22:31:52.859Z,13.41
2019-05-01T22:34:41.360Z,13.42
2019-05-01T22:37:11.257Z,13.39
2019-05-01T22:39:42.633Z,13.44
2019-05-01T22:42:12.612Z,13.38
2019-05-01T22:44:42.435Z,13.36
2019-05-01T22:47:15.111Z,13.31
2019-05-01T22:49:43.765Z,13.20
2019-05-01T22:52:13.560Z,13.26
2019-05-01T22:54:44.984Z,13.21
2019-05-01T22:57:15.748Z,13.17
2019-05-01T22:59:45.573Z,13.13
2019-05-01T23:02:17.031Z,13.06
2019-05-01T23:04:48.330Z,13.03
2019-05-01T23:07:18.651Z,13.01
2019-05-01T23:09:48.500Z,13.08
2019-05-01T23:12:18.305Z,13.10
2019-05-01T23:14:48.121Z,13.01
2019-05-01T23:17:22.315Z,13.01
2019-05-01T23:19:52.281Z,12.96
2019-05-01T23:22:23.962Z,12.96
2019-05-01T23:24:53.717Z,12.94
2019-05-01T23:27:24.268Z,12.99
2019-05-01T23:29:55.041Z,12.98
2019-05-01T23:32:24.863Z,13.02
2019-05-01T23:34:54.588Z,13.02
2019-05-01T23:37:25.999Z,13.03
2019-05-01T23:39:55.904Z,12.95
2019-05-01T23:42:25.717Z,12.93
2019-05-01T23:44:55.528Z,12.89
2019-05-01T23:47:25.387Z,12.86
2019-05-01T23:49:55.130Z,12.74
2019-05-01T23:52:24.960Z,12.61
2019-05-01T23:54:54.687Z,12.63
2019-05-01T23:57:24.515Z,12.64
2019-05-01T23:59:54.247Z,12.51
